Time;durP1;ratioP1;P1;durP2;ratioP2;P2;SDS_P1;SDS_P2;PMS_P1;PMS_P2;Temp;Humidity;BMP_temperature;BMP_pressure;BME280_temperature;BME280_humidity;BME280_pressure;Samples;Min_cycle;Max_cycle;Signal;HPM_P1;HPM_P2
2023/06/03 00:00:13;;;;;;;8.23;1.63;;;30.20;99.20;;;;;;4966426;29;20054;-62
2023/06/03 00:02:42;;;;;;;5.60;0.95;;;30.20;99.30;;;;;;4966580;29;20043;-63
2023/06/03 00:05:09;;;;;;;7.25;1.05;;;30.30;99.40;;;;;;4966520;29;20331;-63
2023/06/03 00:07:35;;;;;;;5.15;0.90;;;30.30;99.40;;;;;;4966356;29;20078;-62
2023/06/03 00:10:03;;;;;;;5.78;0.95;;;30.20;99.50;;;;;;4966458;29;20054;-66
2023/06/03 00:12:29;;;;;;;2.50;0.68;;;30.20;99.50;;;;;;4966249;29;20035;-61
2023/06/03 00:14:56;;;;;;;5.20;1.10;;;30.20;99.70;;;;;;4966819;29;20027;-63
2023/06/03 00:17:26;;;;;;;3.50;0.70;;;30.30;99.70;;;;;;4966413;29;20047;-62
2023/06/03 00:19:53;;;;;;;3.97;0.88;;;30.30;99.80;;;;;;4966084;29;20031;-62
2023/06/03 00:22:21;;;;;;;5.40;0.88;;;30.30;99.80;;;;;;4965692;29;20035;-62
2023/06/03 00:24:48;;;;;;;4.15;1.02;;;30.30;99.90;;;;;;4966028;29;20050;-63
2023/06/03 00:27:15;;;;;;;3.78;1.10;;;30.30;99.90;;;;;;4965921;28;20311;-63
2023/06/03 00:29:42;;;;;;;7.47;1.10;;;30.30;99.90;;;;;;4965996;29;20118;-63
2023/06/03 00:32:09;;;;;;;3.45;1.10;;;30.30;99.90;;;;;;4965894;29;20090;-63
2023/06/03 00:34:35;;;;;;;5.43;1.60;;;30.20;99.90;;;;;;4965488;28;20087;-63
2023/06/03 00:37:02;;;;;;;5.60;1.25;;;30.20;99.90;;;;;;4965485;29;20038;-61
2023/06/03 00:39:28;;;;;;;4.75;1.27;;;30.20;99.90;;;;;;4965984;29;20227;-62
2023/06/03 00:41:58;;;;;;;5.20;1.30;;;30.20;99.90;;;;;;4965845;29;20031;-61
2023/06/03 00:44:24;;;;;;;5.32;1.20;;;30.30;99.90;;;;;;4966254;29;20039;-63
2023/06/03 00:46:51;;;;;;;2.75;1.00;;;30.30;99.90;;;;;;4965787;29;20139;-63
2023/06/03 00:49:18;;;;;;;5.60;1.17;;;30.20;99.90;;;;;;4966341;29;20374;-63
2023/06/03 00:51:45;;;;;;;2.88;0.93;;;30.30;99.90;;;;;;4965292;29;20238;-62
2023/06/03 00:54:16;;;;;;;3.75;0.90;;;30.30;99.90;;;;;;4966125;29;20047;-62
2023/06/03 00:56:44;;;;;;;5.55;1.00;;;30.20;99.90;;;;;;4965488;29;20058;-64
2023/06/03 00:59:17;;;;;;;3.65;0.85;;;30.20;99.90;;;;;;4966183;29;20047;-61
2023/06/03 01:01:43;;;;;;;;;;;30.20;99.90;;;;;;4966075;29;20037;-61
2023/06/03 01:04:18;;;;;;;2.97;0.70;;;30.30;99.90;;;;;;4965979;29;19906;-63
2023/06/03 01:06:53;;;;;;;4.25;0.95;;;30.20;99.90;;;;;;4965196;29;20031;-62
2023/06/03 01:09:22;;;;;;;6.28;0.90;;;30.20;99.90;;;;;;4965912;29;20330;-62
2023/06/03 01:11:55;;;;;;;7.07;0.88;;;29.90;99.90;;;;;;4965541;29;20047;-62
2023/06/03 01:14:34;;;;;;;5.40;0.75;;;29.70;99.90;;;;;;4966080;29;20039;-62
2023/06/03 01:17:09;;;;;;;5.45;1.10;;;29.70;99.90;;;;;;4965880;29;20042;-63
2023/06/03 01:19:47;;;;;;;6.97;1.42;;;30.00;99.90;;;;;;4973149;28;20050;-60
2023/06/03 01:22:20;;;;;;;5.70;1.20;;;30.00;99.90;;;;;;4973198;28;20034;-61
2023/06/03 01:24:50;;;;;;;6.05;1.20;;;30.10;99.90;;;;;;4968250;28;20027;-61
2023/06/03 01:27:18;;;;;;;5.57;1.00;;;30.10;99.90;;;;;;4965376;28;20035;-60
2023/06/03 01:29:46;;;;;;;6.80;1.02;;;30.20;99.90;;;;;;4965405;29;20090;-60
2023/06/03 01:32:16;;;;;;;5.10;0.90;;;30.30;99.90;;;;;;4965522;29;20083;-60
2023/06/03 01:34:43;;;;;;;9.82;1.23;;;30.30;99.90;;;;;;4965350;29;20031;-63
2023/06/03 01:37:10;;;;;;;5.15;0.90;;;30.30;99.90;;;;;;4965076;29;20023;-61
2023/06/03 01:39:39;;;;;;;5.35;0.80;;;30.40;99.90;;;;;;4965519;29;20031;-55
2023/06/03 01:42:11;;;;;;;4.28;0.80;;;30.40;99.90;;;;;;4965265;28;20306;-57
2023/06/03 01:44:38;;;;;;;5.65;0.90;;;30.40;99.90;;;;;;4965478;29;20035;-62
2023/06/03 01:47:05;;;;;;;8.35;1.17;;;30.40;99.90;;;;;;4968550;28;20035;-63
2023/06/03 01:49:32;;;;;;;5.15;1.15;;;30.40;99.90;;;;;;4968924;29;20218;-63
2023/06/03 01:51:59;;;;;;;4.25;0.90;;;30.40;99.90;;;;;;4968613;29;20063;-60
2023/06/03 01:54:26;;;;;;;6.38;0.77;;;30.50;99.90;;;;;;4969250;29;20090;-57
2023/06/03 01:56:54;;;;;;;6.35;1.08;;;30.60;99.90;;;;;;4968450;28;20047;-60
2023/06/03 01:59:23;;;;;;;3.67;0.77;;;30.50;99.90;;;;;;4970648;28;20223;-63
2023/06/03 02:01:55;;;;;;;7.18;0.90;;;30.60;99.90;;;;;;4972996;28;20340;-68
2023/06/03 02:04:22;;;;;;;2.58;0.80;;;30.80;99.90;;;;;;4978888;28;20039;-67
2023/06/03 02:06:52;;;;;;;5.30;1.05;;;31.20;99.90;;;;;;4973802;28;20022;-65
2023/06/03 02:09:27;;;;;;;6.20;1.13;;;31.30;99.90;;;;;;4969048;29;20020;-66
2023/06/03 02:11:55;;;;;;;5.85;1.33;;;31.40;99.90;;;;;;4968448;29;20311;-65
2023/06/03 02:14:22;;;;;;;6.57;1.15;;;31.40;99.90;;;;;;4969001;29;20098;-65
2023/06/03 02:16:49;;;;;;;4.45;0.80;;;31.30;99.90;;;;;;4968345;29;20130;-66
2023/06/03 02:19:21;;;;;;;6.05;0.95;;;31.20;99.90;;;;;;4968895;29;20026;-65
2023/06/03 02:21:47;;;;;;;;;;;31.10;99.90;;;;;;4968395;29;20039;-64
2023/06/03 02:24:14;;;;;;;6.18;0.90;;;31.00;99.90;;;;;;4968560;29;19910;-65
2023/06/03 02:27:24;;;;;;;7.65;1.02;;;30.90;99.90;;;;;;4968402;29;20207;-65
2023/06/03 02:29:32;;;;;;;6.43;1.30;;;30.70;99.90;;;;;;4962735;29;20042;-64
2023/06/03 02:31:59;;;;;;;3.50;0.88;;;30.60;99.90;;;;;;4970022;28;20334;-65
2023/06/03 02:34:26;;;;;;;7.63;0.98;;;30.50;99.90;;;;;;4977239;28;20043;-66
2023/06/03 02:36:53;;;;;;;3.00;0.80;;;30.40;99.90;;;;;;4967820;29;20062;-66
2023/06/03 02:39:20;;;;;;;5.00;1.00;;;30.30;99.90;;;;;;4968703;29;20038;-65
2023/06/03 02:41:47;;;;;;;5.70;1.10;;;30.20;99.90;;;;;;4968112;29;20067;-65
2023/06/03 02:44:15;;;;;;;10.02;1.50;;;30.20;99.90;;;;;;4968389;29;20027;-65
2023/06/03 02:46:41;;;;;;;8.52;1.70;;;30.10;99.90;;;;;;4968069;29;20307;-65
2023/06/03 02:49:08;;;;;;;4.38;1.20;;;30.10;99.90;;;;;;4968439;29;20094;-65
2023/06/03 02:51:42;;;;;;;3.05;0.90;;;30.00;99.90;;;;;;4982043;28;20019;-65
2023/06/03 02:54:08;;;;;;;3.67;1.00;;;30.00;99.90;;;;;;4981419;28;20038;-66
2023/06/03 02:56:35;;;;;;;6.82;1.20;;;29.90;99.90;;;;;;4970444;28;20039;-68
2023/06/03 02:59:02;;;;;;;11.13;0.90;;;29.90;99.90;;;;;;4967450;29;20027;-69
2023/06/03 03:01:28;;;;;;;7.47;0.80;;;29.90;99.90;;;;;;4967796;29;20092;-66
2023/06/03 03:03:55;;;;;;;8.02;1.08;;;29.90;99.90;;;;;;4968113;29;20333;-66
2023/06/03 03:06:24;;;;;;;9.07;1.05;;;29.90;99.90;;;;;;4975994;28;20311;-65
2023/06/03 03:08:53;;;;;;;7.57;1.00;;;29.90;99.90;;;;;;4973427;28;20306;-65
2023/06/03 03:11:20;;;;;;;5.35;0.70;;;29.80;99.90;;;;;;4967771;29;20058;-66
2023/06/03 03:13:47;;;;;;;5.05;0.70;;;29.80;99.90;;;;;;4967767;29;20239;-65
2023/06/03 03:16:15;;;;;;;5.72;0.73;;;29.80;99.90;;;;;;4967454;29;20051;-67
2023/06/03 03:18:42;;;;;;;11.25;1.42;;;29.80;99.90;;;;;;4967994;29;20142;-66
2023/06/03 03:21:09;;;;;;;5.57;1.00;;;29.80;99.90;;;;;;4971377;28;20038;-66
2023/06/03 03:23:36;;;;;;;5.70;0.73;;;29.80;99.90;;;;;;4973422;28;20082;-65
2023/06/03 03:26:02;;;;;;;8.13;0.65;;;29.80;99.90;;;;;;4967492;29;20031;-65
2023/06/03 03:28:29;;;;;;;5.93;0.70;;;29.80;99.90;;;;;;4975754;28;20030;-66
2023/06/03 03:30:56;;;;;;;8.55;1.20;;;29.70;99.90;;;;;;4986393;28;20023;-66
2023/06/03 03:33:23;;;;;;;3.85;0.80;;;29.80;99.90;;;;;;4971240;28;20307;-65
2023/06/03 03:35:50;;;;;;;3.83;0.60;;;29.80;99.90;;;;;;4985850;28;20034;-65
2023/06/03 03:38:17;;;;;;;5.97;0.68;;;29.80;99.90;;;;;;4986313;28;20323;-65
2023/06/03 03:40:44;;;;;;;5.07;0.77;;;29.70;99.90;;;;;;4986336;28;20263;-65
2023/06/03 03:43:16;;;;;;;4.53;0.65;;;29.70;99.90;;;;;;4986131;28;20030;-68
2023/06/03 03:45:43;;;;;;;2.70;0.40;;;29.70;99.90;;;;;;4986047;28;20069;-65
2023/06/03 03:48:14;;;;;;;3.75;0.47;;;29.70;99.90;;;;;;4986107;28;20310;-65
2023/06/03 03:50:45;;;;;;;5.97;0.77;;;29.70;99.90;;;;;;4985868;28;20030;-66
2023/06/03 03:53:21;;;;;;;3.03;0.57;;;29.70;99.90;;;;;;4986124;28;20046;-66
2023/06/03 03:55:52;;;;;;;4.55;0.90;;;29.70;99.90;;;;;;4985644;28;20022;-66
2023/06/03 03:58:19;;;;;;;6.18;1.23;;;29.70;99.90;;;;;;4986004;28;20046;-66
2023/06/03 04:00:47;;;;;;;4.85;0.82;;;29.70;99.90;;;;;;4985858;28;20307;-64
2023/06/03 04:03:14;;;;;;;4.50;0.80;;;29.60;99.80;;;;;;4972194;28;20023;-68
2023/06/03 04:05:43;;;;;;;5.40;1.00;;;29.60;99.80;;;;;;4966142;29;20192;-65
2023/06/03 04:08:12;;;;;;;5.82;0.63;;;29.60;99.80;;;;;;4984480;28;20306;-65
2023/06/03 04:10:39;;;;;;;5.05;0.60;;;29.60;99.80;;;;;;4984717;28;20033;-66
2023/06/03 04:13:06;;;;;;;7.60;0.90;;;29.60;99.80;;;;;;4984831;28;20038;-67
2023/06/03 04:15:33;;;;;;;6.15;0.70;;;29.60;99.80;;;;;;4966219;29;20207;-68
2023/06/03 04:18:00;;;;;;;3.83;0.70;;;29.60;99.90;;;;;;4966243;29;20015;-67
2023/06/03 04:20:35;;;;;;;5.15;0.90;;;29.60;99.80;;;;;;4965807;29;20055;-65
2023/06/03 04:23:07;;;;;;;4.65;0.80;;;29.60;99.80;;;;;;4966230;29;20031;-66
2023/06/03 04:25:34;;;;;;;4.05;0.90;;;29.60;99.90;;;;;;4966056;29;20035;-66
2023/06/03 04:28:00;;;;;;;4.95;0.77;;;29.60;99.90;;;;;;4966738;28;20035;-65
2023/06/03 04:30:27;;;;;;;5.70;0.80;;;29.60;99.90;;;;;;4985198;28;20098;-67
2023/06/03 04:32:53;;;;;;;3.53;0.80;;;29.60;99.80;;;;;;4985330;28;20081;-67
2023/06/03 04:35:20;;;;;;;4.07;0.60;;;29.60;99.80;;;;;;4985017;28;20023;-65
2023/06/03 04:37:46;;;;;;;5.68;0.50;;;29.60;99.70;;;;;;4985281;28;20027;-68
2023/06/03 04:40:13;;;;;;;4.53;0.50;;;29.60;99.70;;;;;;4985362;28;20054;-68
2023/06/03 04:42:41;;;;;;;6.05;0.80;;;29.60;99.70;;;;;;4985091;28;20027;-67
2023/06/03 04:45:08;;;;;;;5.82;0.73;;;29.60;99.70;;;;;;4985101;28;20068;-65
2023/06/03 04:47:35;;;;;;;5.38;0.50;;;29.60;99.70;;;;;;4985082;28;20039;-65
2023/06/03 04:50:04;;;;;;;4.22;0.60;;;29.60;99.70;;;;;;4984706;28;20059;-65
2023/06/03 04:52:31;;;;;;;4.15;0.60;;;29.60;99.70;;;;;;4984826;28;20023;-66
2023/06/03 04:54:58;;;;;;;3.97;0.50;;;29.60;99.80;;;;;;4984935;28;20030;-66
2023/06/03 04:57:24;;;;;;;3.20;0.68;;;29.60;99.80;;;;;;4981496;28;20090;-65
2023/06/03 04:59:51;;;;;;;3.90;0.60;;;29.60;99.80;;;;;;4965560;29;20019;-65
2023/06/03 05:02:20;;;;;;;5.07;0.60;;;29.60;99.70;;;;;;4983263;28;20102;-65
2023/06/03 05:04:49;;;;;;;1.55;0.40;;;29.50;99.70;;;;;;4984424;28;20036;-65
2023/06/03 05:07:16;;;;;;;5.00;0.70;;;29.50;99.80;;;;;;4984894;28;20034;-66
2023/06/03 05:09:42;;;;;;;6.70;0.50;;;29.50;99.80;;;;;;4984678;28;20062;-67
2023/06/03 05:12:09;;;;;;;6.78;0.70;;;29.50;99.90;;;;;;4984879;28;20029;-66
2023/06/03 05:14:36;;;;;;;4.82;0.73;;;29.50;99.80;;;;;;4984571;28;20026;-66
2023/06/03 05:17:02;;;;;;;7.60;0.65;;;29.50;99.80;;;;;;4984756;28;20065;-66
2023/06/03 05:19:29;;;;;;;6.53;0.57;;;29.60;99.90;;;;;;4984296;28;20031;-65
2023/06/03 05:21:58;;;;;;;3.85;0.60;;;29.60;99.90;;;;;;4987660;28;20026;-66
2023/06/03 05:24:24;;;;;;;7.13;0.70;;;29.60;99.80;;;;;;4989078;28;20033;-65
2023/06/03 05:26:51;;;;;;;6.13;0.73;;;29.60;99.80;;;;;;4988563;28;20030;-65
2023/06/03 05:29:17;;;;;;;6.25;0.88;;;29.50;99.70;;;;;;4989084;28;20070;-65
2023/06/03 05:31:44;;;;;;;5.90;0.60;;;29.50;99.70;;;;;;4988590;28;20034;-66
2023/06/03 05:34:10;;;;;;;7.00;0.68;;;29.50;99.60;;;;;;4988810;28;20222;-65
2023/06/03 05:36:37;;;;;;;10.52;0.77;;;29.50;99.60;;;;;;4988433;28;20015;-65
2023/06/03 05:39:03;;;;;;;4.80;0.52;;;29.40;99.60;;;;;;4988630;28;20058;-65
2023/06/03 05:41:30;;;;;;;5.03;0.60;;;29.50;99.60;;;;;;4988495;28;20050;-67
2023/06/03 05:43:56;;;;;;;5.43;0.80;;;29.40;99.60;;;;;;4988749;28;20302;-67
2023/06/03 05:46:23;;;;;;;7.05;0.80;;;29.40;99.60;;;;;;4988086;28;20057;-65
2023/06/03 05:48:49;;;;;;;5.97;0.60;;;29.40;99.60;;;;;;4988286;28;20038;-65
2023/06/03 05:51:16;;;;;;;4.78;0.75;;;29.40;99.60;;;;;;4988142;28;20094;-65
2023/06/03 05:53:43;;;;;;;7.53;0.90;;;29.40;99.70;;;;;;4988192;28;20038;-66
2023/06/03 05:56:11;;;;;;;7.10;0.70;;;29.50;99.70;;;;;;4988079;28;20037;-66
2023/06/03 05:58:40;;;;;;;4.70;0.60;;;29.40;99.60;;;;;;4988285;28;20038;-65
2023/06/03 06:01:07;;;;;;;4.13;0.70;;;29.40;99.70;;;;;;4987937;28;20031;-65
2023/06/03 06:03:33;;;;;;;3.95;0.60;;;29.40;99.70;;;;;;4988161;28;20366;-66
2023/06/03 06:06:01;;;;;;;4.40;0.88;;;29.40;99.80;;;;;;4987947;28;20023;-66
2023/06/03 06:08:29;;;;;;;5.18;0.60;;;29.40;99.70;;;;;;4988025;28;20060;-66
2023/06/03 06:10:55;;;;;;;5.60;0.50;;;29.50;99.80;;;;;;4987782;28;20069;-64
2023/06/03 06:13:22;;;;;;;7.82;0.73;;;29.40;99.70;;;;;;4988259;28;20036;-65
2023/06/03 06:15:59;;;;;;;4.30;0.77;;;29.40;99.70;;;;;;4987918;28;20082;-65
2023/06/03 06:18:26;;;;;;;6.63;0.88;;;29.40;99.70;;;;;;4987570;28;20027;-65
2023/06/03 06:20:53;;;;;;;6.05;0.82;;;29.40;99.80;;;;;;4987575;28;20034;-65
2023/06/03 06:23:19;;;;;;;2.67;0.75;;;29.40;99.80;;;;;;4988034;28;20174;-65
2023/06/03 06:25:50;;;;;;;5.20;0.95;;;29.40;99.80;;;;;;4987588;28;20369;-65
2023/06/03 06:28:22;;;;;;;5.72;0.70;;;29.40;99.80;;;;;;4987667;28;20060;-64
2023/06/03 06:30:52;;;;;;;7.47;1.00;;;29.40;99.70;;;;;;4970810;28;20027;-65
2023/06/03 06:33:18;;;;;;;3.80;0.70;;;29.40;99.80;;;;;;4966950;28;20106;-64
2023/06/03 06:35:45;;;;;;;7.25;0.90;;;29.40;99.70;;;;;;4967843;29;20070;-63
2023/06/03 06:38:13;;;;;;;4.45;0.65;;;29.40;99.70;;;;;;4968179;29;20046;-65
2023/06/03 06:40:40;;;;;;;9.07;0.80;;;29.40;99.60;;;;;;4967952;29;20039;-65
2023/06/03 06:43:15;;;;;;;3.53;0.80;;;29.40;99.70;;;;;;4967849;29;20039;-65
2023/06/03 06:45:42;;;;;;;6.53;0.60;;;29.40;99.60;;;;;;4967776;29;20031;-65
2023/06/03 06:48:09;;;;;;;5.68;0.70;;;29.40;99.70;;;;;;4967834;29;20039;-64
2023/06/03 06:50:48;;;;;;;3.40;0.60;;;29.40;99.60;;;;;;4967878;29;20023;-66
2023/06/03 06:53:16;;;;;;;10.32;0.82;;;29.40;99.70;;;;;;4968129;29;20099;-66
2023/06/03 06:56:21;;;;;;;4.18;0.95;;;29.40;99.80;;;;;;4967674;29;20030;-65
2023/06/03 06:58:47;;;;;;;10.32;0.80;;;29.40;99.70;;;;;;4952330;29;20151;-65
2023/06/03 07:01:15;;;;;;;5.25;0.85;;;29.40;99.80;;;;;;4967984;29;20034;-64
2023/06/03 07:03:41;;;;;;;5.70;0.77;;;29.40;99.70;;;;;;4967694;29;20035;-67
2023/06/03 07:06:08;;;;;;;7.13;0.75;;;29.50;99.70;;;;;;4967814;29;20036;-67
2023/06/03 07:08:35;;;;;;;7.40;0.80;;;29.40;99.70;;;;;;4967930;29;20023;-67
2023/06/03 07:11:03;;;;;;;9.63;0.80;;;29.50;99.80;;;;;;4967766;29;20040;-65
2023/06/03 07:13:30;;;;;;;3.45;0.63;;;29.40;99.80;;;;;;4967749;29;20047;-65
2023/06/03 07:15:56;;;;;;;4.03;0.90;;;29.50;99.80;;;;;;4967400;29;20236;-65
2023/06/03 07:18:25;;;;;;;7.32;0.77;;;29.50;99.90;;;;;;4967303;29;20039;-64
2023/06/03 07:20:52;;;;;;;7.03;0.60;;;29.50;99.90;;;;;;4967403;29;20219;-63
2023/06/03 07:23:28;;;;;;;4.72;0.80;;;29.50;99.90;;;;;;4967606;29;20062;-64
2023/06/03 07:25:55;;;;;;;5.18;0.80;;;29.50;99.90;;;;;;4967373;29;20035;-64
2023/06/03 07:28:33;;;;;;;4.20;0.70;;;29.50;99.90;;;;;;4967398;29;20113;-64
2023/06/03 07:31:04;;;;;;;6.18;0.85;;;29.50;99.90;;;;;;4967289;29;20023;-65
2023/06/03 07:33:40;;;;;;;4.82;0.60;;;29.50;99.90;;;;;;4966950;29;20043;-66
2023/06/03 07:36:07;;;;;;;6.95;1.10;;;29.50;99.90;;;;;;4967122;29;20027;-65
2023/06/03 07:38:42;;;;;;;7.60;0.70;;;29.50;99.90;;;;;;4967551;29;20389;-64
2023/06/03 07:41:09;;;;;;;7.90;0.80;;;29.50;99.90;;;;;;4966929;29;20319;-64
2023/06/03 07:43:40;;;;;;;3.13;0.63;;;29.50;99.90;;;;;;4967172;28;20255;-65
2023/06/03 07:46:08;;;;;;;5.82;0.90;;;29.50;99.90;;;;;;4967019;29;20035;-65
2023/06/03 07:48:37;;;;;;;4.38;1.00;;;29.50;99.90;;;;;;4966803;29;20027;-65
2023/06/03 07:51:05;;;;;;;4.78;0.73;;;29.50;99.90;;;;;;4967048;29;20031;-66
2023/06/03 07:53:36;;;;;;;7.47;1.00;;;29.50;99.90;;;;;;4967032;29;20030;-66
2023/06/03 07:56:09;;;;;;;5.20;0.70;;;29.50;99.90;;;;;;4966816;29;20041;-65
2023/06/03 07:58:37;;;;;;;5.38;0.82;;;29.50;99.90;;;;;;4967065;29;20043;-65
2023/06/03 08:01:04;;;;;;;9.05;1.15;;;29.50;99.90;;;;;;4966601;29;20019;-65
2023/06/03 08:03:32;;;;;;;15.63;1.42;;;29.50;99.90;;;;;;4966671;29;20361;-65
2023/06/03 08:05:59;;;;;;;7.57;1.10;;;29.50;99.90;;;;;;4966607;29;20027;-65
2023/06/03 08:08:32;;;;;;;6.05;0.70;;;29.50;99.90;;;;;;4966673;28;20207;-65
2023/06/03 08:11:01;;;;;;;5.63;0.80;;;29.50;99.90;;;;;;4966538;29;20046;-65
2023/06/03 08:13:28;;;;;;;5.93;1.13;;;29.50;99.90;;;;;;4966708;29;20374;-66
2023/06/03 08:15:55;;;;;;;7.00;0.80;;;29.50;99.90;;;;;;4966329;29;20027;-66
2023/06/03 08:18:44;;;;;;;7.45;0.90;;;29.40;99.90;;;;;;4966458;29;20031;-65
2023/06/03 08:21:12;;;;;;;10.02;1.35;;;29.40;99.90;;;;;;4966232;29;20031;-65
2023/06/03 08:23:39;;;;;;;4.63;0.75;;;29.40;99.90;;;;;;4966649;29;20335;-64
2023/06/03 08:26:06;;;;;;;3.85;0.80;;;29.40;99.90;;;;;;4966160;29;20031;-66
2023/06/03 08:28:32;;;;;;;6.38;1.02;;;29.40;99.90;;;;;;4966403;29;20037;-66
2023/06/03 08:31:00;;;;;;;6.45;0.90;;;29.50;99.90;;;;;;4966207;29;20035;-66
2023/06/03 08:33:27;;;;;;;6.75;0.82;;;29.40;99.90;;;;;;4965945;29;20027;-65
2023/06/03 08:35:53;;;;;;;8.98;0.90;;;29.50;99.90;;;;;;4965982;29;20078;-65
2023/06/03 08:38:20;;;;;;;5.40;0.85;;;29.40;99.90;;;;;;4966395;29;20307;-65
2023/06/03 08:40:48;;;;;;;7.60;1.00;;;29.40;99.90;;;;;;4966113;29;20023;-65
2023/06/03 08:43:16;;;;;;;5.82;0.80;;;29.40;99.90;;;;;;4966117;29;20086;-65
2023/06/03 08:46:04;;;;;;;4.82;0.70;;;29.40;99.90;;;;;;4966022;29;20043;-65
2023/06/03 08:49:01;;;;;;;5.45;0.93;;;29.50;99.90;;;;;;4965832;29;20069;-67
2023/06/03 08:51:28;;;;;;;9.55;1.27;;;29.40;99.90;;;;;;4965249;29;20058;-64
2023/06/03 08:53:55;;;;;;;2.92;0.60;;;29.40;99.90;;;;;;4966161;29;20306;-65
2023/06/03 08:56:22;;;;;;;4.75;1.10;;;29.50;99.90;;;;;;4965097;28;20050;-66
2023/06/03 08:59:01;;;;;;;7.95;1.27;;;29.40;99.90;;;;;;4966043;29;20062;-67
2023/06/03 09:01:35;;;;;;;3.30;0.77;;;29.50;99.90;;;;;;4965453;29;20023;-65
2023/06/03 09:04:03;;;;;;;8.38;0.70;;;29.40;99.90;;;;;;4966176;29;20039;-65
2023/06/03 09:06:31;;;;;;;4.88;0.65;;;29.40;99.90;;;;;;4965825;29;20055;-66
2023/06/03 09:08:59;;;;;;;6.97;0.90;;;29.40;99.90;;;;;;4966105;29;20207;-66
2023/06/03 09:11:26;;;;;;;4.30;0.85;;;29.40;99.90;;;;;;4965633;29;20038;-66
2023/06/03 09:13:54;;;;;;;6.50;0.88;;;29.40;99.90;;;;;;4966031;29;20047;-66
2023/06/03 09:16:20;;;;;;;6.65;1.00;;;29.40;99.90;;;;;;4965270;29;20353;-65
2023/06/03 09:18:51;;;;;;;6.65;0.80;;;29.40;99.90;;;;;;4965903;29;20051;-65
2023/06/03 09:21:18;;;;;;;4.63;0.85;;;29.40;99.90;;;;;;4965570;29;20027;-65
2023/06/03 09:23:45;;;;;;;9.40;1.50;;;29.40;99.90;;;;;;4965927;29;20027;-65
2023/06/03 09:26:12;;;;;;;8.02;1.45;;;29.50;99.90;;;;;;4965485;29;20106;-65
2023/06/03 09:28:38;;;;;;;6.72;1.10;;;29.40;99.90;;;;;;4965919;29;20063;-65
2023/06/03 09:31:05;;;;;;;6.90;1.13;;;29.50;99.90;;;;;;4965105;29;20034;-65
2023/06/03 09:33:32;;;;;;;5.20;0.90;;;29.40;99.90;;;;;;4965598;29;20102;-66
2023/06/03 09:36:17;;;;;;;5.43;1.15;;;29.40;99.90;;;;;;4965461;29;20098;-66
2023/06/03 09:38:53;;;;;;;7.78;1.13;;;29.50;99.90;;;;;;4965692;29;20039;-66
2023/06/03 09:41:26;;;;;;;7.10;0.98;;;29.40;99.90;;;;;;4965510;29;20073;-66
2023/06/03 09:43:56;;;;;;;6.28;0.88;;;29.40;99.90;;;;;;4965834;29;20039;-65
2023/06/03 09:46:24;;;;;;;6.10;1.00;;;29.40;99.90;;;;;;4964935;29;20382;-65
2023/06/03 09:48:50;;;;;;;5.72;1.20;;;29.40;99.90;;;;;;4965686;29;20299;-66
2023/06/03 09:51:17;;;;;;;6.25;1.00;;;29.40;99.90;;;;;;4965391;29;20034;-64
2023/06/03 09:53:44;;;;;;;8.38;1.13;;;29.30;99.90;;;;;;4965304;29;20039;-64
2023/06/03 09:56:23;;;;;;;8.40;0.85;;;29.40;99.90;;;;;;4964984;29;20315;-65
2023/06/03 09:58:54;;;;;;;6.35;1.00;;;29.40;99.90;;;;;;4965504;29;20074;-65
2023/06/03 10:01:33;;;;;;;4.60;0.70;;;29.50;99.90;;;;;;4964773;29;20016;-65
2023/06/03 10:04:00;;;;;;;8.85;1.20;;;29.50;99.90;;;;;;4965610;29;20062;-64
2023/06/03 10:06:27;;;;;;;3.85;0.93;;;29.40;99.90;;;;;;4965691;28;20319;-64
2023/06/03 10:08:54;;;;;;;7.82;1.13;;;29.50;99.90;;;;;;4969165;29;20031;-64
2023/06/03 10:11:23;;;;;;;5.00;0.80;;;29.40;99.90;;;;;;4968682;29;20043;-64
2023/06/03 10:14:03;;;;;;;6.63;1.00;;;29.40;99.90;;;;;;4968837;29;20577;-64
2023/06/03 10:16:30;;;;;;;4.80;0.98;;;29.40;99.90;;;;;;4968236;29;20031;-64
2023/06/03 10:18:56;;;;;;;5.90;0.77;;;29.40;99.90;;;;;;4968870;29;20234;-64
2023/06/03 10:21:23;;;;;;;8.02;1.00;;;29.40;99.90;;;;;;4968503;29;20326;-64
2023/06/03 10:23:53;;;;;;;5.72;0.95;;;29.40;99.90;;;;;;4968840;29;20243;-64
2023/06/03 10:26:22;;;;;;;7.32;1.25;;;29.40;99.90;;;;;;4984627;28;20022;-65
2023/06/03 10:28:51;;;;;;;8.10;1.00;;;29.40;99.90;;;;;;4988189;28;20238;-65
2023/06/03 10:31:20;;;;;;;7.60;1.20;;;29.30;99.90;;;;;;4987358;28;20043;-67
2023/06/03 10:33:47;;;;;;;9.13;1.10;;;29.30;99.90;;;;;;4987683;28;20027;-66
2023/06/03 10:36:15;;;;;;;7.15;1.23;;;29.30;99.90;;;;;;4987605;28;20058;-67
2023/06/03 10:38:41;;;;;;;5.68;0.90;;;29.30;99.90;;;;;;4987920;28;20117;-67
2023/06/03 10:41:12;;;;;;;9.00;1.08;;;29.20;99.90;;;;;;4987445;28;20022;-65
2023/06/03 10:43:39;;;;;;;5.15;1.10;;;29.30;99.90;;;;;;4968477;29;20035;-66
2023/06/03 10:46:06;;;;;;;9.80;1.02;;;29.30;99.90;;;;;;4967766;29;20042;-66
2023/06/03 10:48:35;;;;;;;6.68;1.08;;;29.20;99.90;;;;;;4968260;29;20086;-66
2023/06/03 10:51:20;;;;;;;6.38;1.10;;;29.20;99.80;;;;;;4968092;29;20030;-66
2023/06/03 10:54:08;;;;;;;7.15;1.30;;;29.20;99.90;;;;;;4968093;29;20043;-66
2023/06/03 10:56:57;;;;;;;7.00;1.20;;;29.20;99.80;;;;;;4967766;28;20327;-66
2023/06/03 10:59:28;;;;;;;7.00;1.25;;;29.30;99.90;;;;;;4968237;29;20063;-66
2023/06/03 11:01:58;;;;;;;12.77;1.75;;;29.20;99.80;;;;;;4967453;29;20011;-65
2023/06/03 11:04:26;;;;;;;10.32;1.85;;;29.20;99.80;;;;;;4968166;29;20094;-65
2023/06/03 11:06:53;;;;;;;4.75;1.00;;;29.20;99.80;;;;;;4967939;29;20098;-66
2023/06/03 11:09:37;;;;;;;9.65;1.63;;;29.20;99.80;;;;;;4967940;29;20180;-64
2023/06/03 11:12:13;;;;;;;7.28;1.70;;;29.20;99.80;;;;;;4967530;28;20074;-66
2023/06/03 11:14:48;;;;;;;7.18;1.60;;;29.20;99.80;;;;;;4967623;29;20019;-65
2023/06/03 11:17:15;;;;;;;12.98;3.25;;;29.20;99.80;;;;;;4967066;29;20035;-66
2023/06/03 11:19:45;;;;;;;8.50;2.10;;;29.20;99.80;;;;;;4966895;28;20019;-65
2023/06/03 11:22:14;;;;;;;7.68;1.48;;;29.30;99.80;;;;;;4967112;29;20043;-68
2023/06/03 11:24:41;;;;;;;12.60;1.98;;;29.20;99.80;;;;;;4967269;29;20330;-66
2023/06/03 11:27:12;;;;;;;5.97;1.83;;;29.20;99.80;;;;;;4967234;29;20074;-66
2023/06/03 11:29:45;;;;;;;7.20;1.43;;;29.20;99.80;;;;;;4967434;29;20051;-66
2023/06/03 11:32:13;;;;;;;6.95;1.38;;;29.20;99.80;;;;;;4966875;29;20035;-63
2023/06/03 11:34:40;;;;;;;7.82;1.40;;;29.20;99.90;;;;;;4966910;29;20226;-63
2023/06/03 11:37:06;;;;;;;5.15;1.30;;;29.20;99.80;;;;;;4966883;29;20090;-66
2023/06/03 11:40:08;;;;;;;10.95;1.52;;;29.30;99.80;;;;;;4967145;29;20034;-65
2023/06/03 11:42:49;;;;;;;8.43;1.50;;;29.20;99.80;;;;;;4967185;29;20283;-65
2023/06/03 11:45:21;;;;;;;10.43;1.50;;;29.30;99.90;;;;;;4966334;29;20074;-65
2023/06/03 11:47:56;;;;;;;6.05;1.10;;;29.20;99.80;;;;;;4966932;29;20034;-65
2023/06/03 11:50:24;;;;;;;4.70;1.00;;;29.20;99.80;;;;;;4966514;29;20027;-67
2023/06/03 11:52:51;;;;;;;6.25;1.20;;;29.30;99.80;;;;;;4966498;29;20027;-65
2023/06/03 11:55:27;;;;;;;10.48;1.50;;;29.30;99.80;;;;;;4972100;28;20019;-65
2023/06/03 11:58:00;;;;;;;8.32;1.25;;;29.30;99.80;;;;;;4984495;28;20035;-65
2023/06/03 12:00:27;;;;;;;11.60;1.50;;;29.30;99.80;;;;;;4985296;28;20019;-66
2023/06/03 12:02:54;;;;;;;8.63;1.80;;;29.20;99.80;;;;;;4985923;28;20039;-66
2023/06/03 12:05:21;;;;;;;6.35;1.40;;;29.30;99.90;;;;;;4985744;28;20031;-66
2023/06/03 12:07:59;;;;;;;7.18;2.10;;;29.30;99.90;;;;;;4986035;28;20329;-65
2023/06/03 12:10:27;;;;;;;6.97;1.40;;;29.30;99.90;;;;;;4985693;28;20131;-64
2023/06/03 12:12:56;;;;;;;7.53;1.75;;;29.30;99.90;;;;;;4983410;28;20039;-66
2023/06/03 12:15:23;;;;;;;5.68;1.70;;;29.20;99.90;;;;;;4966190;29;20031;-66
2023/06/03 12:17:50;;;;;;;8.57;2.25;;;29.30;99.90;;;;;;4966329;29;20031;-66
2023/06/03 12:20:24;;;;;;;13.45;2.60;;;29.20;99.90;;;;;;4966384;29;20019;-66
2023/06/03 12:23:07;;;;;;;5.10;2.20;;;29.30;99.90;;;;;;4966376;29;20316;-65
2023/06/03 12:25:34;;;;;;;5.38;2.15;;;29.30;99.90;;;;;;4966407;29;20082;-65
2023/06/03 12:28:24;;;;;;;5.53;2.10;;;29.30;99.90;;;;;;4966453;29;20035;-66
2023/06/03 12:30:51;;;;;;;8.63;1.60;;;29.20;99.90;;;;;;4965020;28;20311;-66
2023/06/03 12:33:18;;;;;;;9.48;1.98;;;29.20;99.90;;;;;;4981923;28;20243;-65
2023/06/03 12:35:57;;;;;;;7.28;1.85;;;29.20;99.90;;;;;;4965908;29;20070;-67
2023/06/03 12:38:24;;;;;;;5.60;1.80;;;29.20;99.90;;;;;;4966252;29;20037;-66
2023/06/03 12:40:52;;;;;;;6.30;1.83;;;29.20;99.90;;;;;;4965979;29;20019;-65
2023/06/03 12:43:22;;;;;;;4.95;1.58;;;29.20;99.90;;;;;;4966208;29;20054;-65
2023/06/03 12:45:49;;;;;;;5.10;1.55;;;29.10;99.90;;;;;;4967656;28;20046;-65
2023/06/03 12:48:31;;;;;;;8.30;1.80;;;29.10;99.90;;;;;;4966675;28;20034;-67
2023/06/03 12:50:59;;;;;;;5.18;1.70;;;29.10;99.90;;;;;;4965843;29;20038;-65
2023/06/03 12:53:26;;;;;;;3.25;1.52;;;29.00;99.80;;;;;;4965992;29;20035;-66
2023/06/03 12:55:52;;;;;;;6.03;1.40;;;29.00;99.90;;;;;;4965733;29;20026;-66
2023/06/03 12:58:19;;;;;;;5.63;1.52;;;29.00;99.90;;;;;;4965821;29;20051;-66